createdAt,value
2024-01-04T00:00:57.152Z,51.30
2024-01-04T00:03:26.199Z,51.20
2024-01-04T00:05:53.027Z,51.30
2024-01-04T00:08:19.714Z,51.20
2024-01-04T00:10:46.372Z,51.30
2024-01-04T00:13:13.035Z,51.30
2024-01-04T00:15:39.681Z,51.40
2024-01-04T00:18:06.532Z,51.20
2024-01-04T00:20:33.361Z,51.20
2024-01-04T00:23:00.049Z,51.30
2024-01-04T00:25:26.775Z,51.40
2024-01-04T00:27:53.797Z,51.20
2024-01-04T00:30:20.676Z,51.20
2024-01-04T00:32:47.504Z,51.20
2024-01-04T00:35:14.288Z,51.20
2024-01-04T00:37:40.892Z,51.20
2024-01-04T00:40:09.711Z,51.30
2024-01-04T00:42:36.636Z,51.30
2024-01-04T00:45:03.535Z,51.20
2024-01-04T00:47:30.293Z,51.30
2024-01-04T00:49:56.991Z,51.10
2024-01-04T00:52:23.641Z,51.20
2024-01-04T00:54:50.329Z,51.20
2024-01-04T00:57:17.026Z,51.10
2024-01-04T00:59:43.683Z,51.10
2024-01-04T01:02:10.321Z,51.00
2024-01-04T01:04:38.496Z,51.60
2024-01-04T01:07:05.221Z,51.00
2024-01-04T01:09:31.904Z,51.00
2024-01-04T01:11:58.590Z,51.00
2024-01-04T01:14:25.230Z,51.00
2024-01-04T01:16:51.930Z,51.00
2024-01-04T01:19:18.674Z,51.00
2024-01-04T01:21:45.450Z,51.00
2024-01-04T01:24:12.194Z,51.00
2024-01-04T01:26:38.985Z,51.00
2024-01-04T01:29:05.632Z,51.10
2024-01-04T01:31:32.276Z,51.00
2024-01-04T01:33:59.032Z,51.00
2024-01-04T01:36:25.778Z,51.10
2024-01-04T01:38:52.429Z,51.00
2024-01-04T01:41:19.055Z,51.10
2024-01-04T01:43:45.659Z,51.10
2024-01-04T01:46:12.296Z,51.10
2024-01-04T01:48:39.088Z,51.10
2024-01-04T01:51:05.837Z,51.10
2024-01-04T01:53:32.479Z,51.10
2024-01-04T01:55:59.154Z,51.10
2024-01-04T01:58:25.771Z,51.10
2024-01-04T02:00:52.443Z,51.00
2024-01-04T02:03:19.223Z,51.00
2024-01-04T02:05:46.170Z,51.00
2024-01-04T02:08:12.840Z,51.00
2024-01-04T02:10:39.647Z,51.00
2024-01-04T02:13:06.923Z,51.00
2024-01-04T02:15:33.563Z,51.00
2024-01-04T02:18:00.816Z,51.00
2024-01-04T02:20:27.534Z,50.90
2024-01-04T02:22:54.299Z,50.90
2024-01-04T02:25:20.899Z,50.90
2024-01-04T02:27:47.596Z,50.90
2024-01-04T02:30:14.448Z,50.90
2024-01-04T02:32:41.619Z,50.80
2024-01-04T02:35:08.713Z,50.90
2024-01-04T02:37:35.338Z,50.80
2024-01-04T02:40:02.051Z,50.90
2024-01-04T02:42:28.741Z,50.80
2024-01-04T02:44:55.391Z,50.80
2024-01-04T02:47:22.328Z,50.80
2024-01-04T02:49:48.971Z,50.70
2024-01-04T02:52:15.741Z,50.70
2024-01-04T02:54:42.365Z,50.70
2024-01-04T02:57:09.043Z,50.60
2024-01-04T02:59:35.677Z,50.60
2024-01-04T03:02:02.944Z,50.60
2024-01-04T03:04:29.735Z,50.70
2024-01-04T03:06:56.576Z,50.60
2024-01-04T03:09:23.219Z,50.60
2024-01-04T03:11:50.060Z,50.70
2024-01-04T03:14:16.753Z,50.60
2024-01-04T03:16:43.483Z,50.70
2024-01-04T03:19:10.330Z,50.70
2024-01-04T03:21:37.098Z,50.60
2024-01-04T03:24:04.158Z,50.80
2024-01-04T03:26:30.833Z,50.60
2024-01-04T03:28:57.622Z,50.80
2024-01-04T03:31:24.255Z,50.70
2024-01-04T03:33:51.297Z,50.80
2024-01-04T03:36:18.299Z,50.80
2024-01-04T03:38:46.757Z,50.70
2024-01-04T03:41:13.563Z,50.80
2024-01-04T03:43:40.259Z,50.80
2024-01-04T03:46:10.004Z,50.70
2024-01-04T03:48:36.825Z,50.80
2024-01-04T03:51:03.884Z,50.70
2024-01-04T03:53:30.641Z,50.80
2024-01-04T03:55:58.409Z,50.70
2024-01-04T03:58:26.850Z,50.70
2024-01-04T04:00:54.229Z,50.60
2024-01-04T04:03:21.099Z,50.60
2024-01-04T04:05:47.953Z,50.60
2024-01-04T04:08:14.885Z,50.50
2024-01-04T04:10:41.865Z,50.60
2024-01-04T04:13:08.489Z,50.60
2024-01-04T04:15:35.445Z,50.60
2024-01-04T04:18:02.329Z,50.60
2024-01-04T04:20:29.220Z,50.60
2024-01-04T04:22:57.224Z,50.60
2024-01-04T04:25:24.003Z,50.60
2024-01-04T04:27:50.735Z,50.50
2024-01-04T04:30:18.471Z,50.60
2024-01-04T04:32:45.222Z,50.50
2024-01-04T04:35:11.971Z,50.60
2024-01-04T04:37:38.590Z,50.50
2024-01-04T04:40:05.745Z,50.60
2024-01-04T04:42:32.352Z,50.60
2024-01-04T04:45:00.631Z,50.60
2024-01-04T04:47:27.438Z,50.60
2024-01-04T04:49:54.111Z,50.60
2024-01-04T04:52:20.717Z,50.60
2024-01-04T04:54:47.351Z,50.70
2024-01-04T04:57:14.030Z,50.60
2024-01-04T04:59:40.753Z,50.80
2024-01-04T05:02:07.368Z,50.70
2024-01-04T05:04:33.996Z,50.70
2024-01-04T05:07:00.617Z,50.70
2024-01-04T05:09:27.249Z,50.70
2024-01-04T05:11:53.969Z,50.80
2024-01-04T05:14:20.638Z,50.80
2024-01-04T05:16:47.359Z,50.90
2024-01-04T05:19:14.138Z,50.90
2024-01-04T05:21:40.929Z,50.90
2024-01-04T05:24:07.633Z,51.00
2024-01-04T05:26:34.471Z,51.00
2024-01-04T05:29:01.207Z,51.00
2024-01-04T05:31:27.934Z,50.70
2024-01-04T05:33:54.782Z,51.10
2024-01-04T05:36:21.869Z,51.20
2024-01-04T05:38:48.595Z,51.20
2024-01-04T05:41:15.275Z,51.30
2024-01-04T05:43:41.938Z,51.30
2024-01-04T05:46:09.084Z,51.40
2024-01-04T05:48:36.012Z,51.50
2024-01-04T05:51:03.390Z,51.50
2024-01-04T05:53:30.036Z,51.50
2024-01-04T05:55:56.662Z,51.60
2024-01-04T05:58:23.277Z,51.70
2024-01-04T06:00:50.053Z,51.70
2024-01-04T06:03:18.153Z,51.80
2024-01-04T06:05:44.942Z,51.80
2024-01-04T06:08:11.760Z,51.80
2024-01-04T06:10:38.410Z,51.80
2024-01-04T06:13:05.021Z,51.90
2024-01-04T06:15:31.682Z,52.20
2024-01-04T06:17:58.412Z,52.40
2024-01-04T06:20:25.210Z,52.20
2024-01-04T06:22:52.450Z,52.00
2024-01-04T06:25:20.395Z,52.20
2024-01-04T06:27:47.369Z,52.20
2024-01-04T06:30:14.447Z,52.10
2024-01-04T06:32:41.190Z,52.20
2024-01-04T06:35:08.084Z,52.10
2024-01-04T06:37:34.689Z,52.20
2024-01-04T06:40:01.370Z,52.10
2024-01-04T06:42:28.048Z,52.20
2024-01-04T06:44:54.797Z,52.20
2024-01-04T06:47:21.467Z,52.40
2024-01-04T06:49:48.507Z,52.40
2024-01-04T06:52:15.260Z,52.40
2024-01-04T06:54:41.905Z,52.50
2024-01-04T06:57:08.981Z,52.40
2024-01-04T06:59:35.843Z,52.70
2024-01-04T07:02:05.836Z,52.70
2024-01-04T07:04:32.915Z,52.70
2024-01-04T07:06:59.722Z,52.70
2024-01-04T07:09:26.424Z,52.70
2024-01-04T07:11:53.437Z,52.70
2024-01-04T07:14:20.146Z,52.70
2024-01-04T07:16:47.077Z,52.70
2024-01-04T07:19:14.123Z,52.70
2024-01-04T07:21:42.071Z,52.70
2024-01-04T07:24:08.746Z,52.70
2024-01-04T07:26:35.659Z,52.70
2024-01-04T07:29:02.341Z,52.70
2024-01-04T07:31:29.121Z,52.70
2024-01-04T07:33:56.016Z,53.30
2024-01-04T07:36:22.781Z,52.70
2024-01-04T07:38:49.540Z,52.70
2024-01-04T07:41:16.593Z,52.70
2024-01-04T07:43:43.275Z,52.70
2024-01-04T07:46:09.920Z,52.70
2024-01-04T07:48:36.718Z,52.60
2024-01-04T07:51:03.625Z,52.70
2024-01-04T07:53:30.346Z,52.70
2024-01-04T07:55:57.801Z,52.60
2024-01-04T07:58:24.451Z,52.60
2024-01-04T08:00:51.091Z,52.60
2024-01-04T08:03:17.876Z,52.60
2024-01-04T08:05:44.850Z,52.60
2024-01-04T08:08:11.499Z,52.60
2024-01-04T08:10:38.117Z,52.70
2024-01-04T08:13:04.864Z,52.60
2024-01-04T08:15:34.542Z,52.70
2024-01-04T08:18:04.424Z,52.70
2024-01-04T08:20:33.513Z,52.70
2024-01-04T08:23:00.353Z,52.80
2024-01-04T08:25:28.107Z,52.80
2024-01-04T08:27:55.708Z,52.70
2024-01-04T08:30:22.628Z,52.80
2024-01-04T08:32:49.453Z,52.80
2024-01-04T08:35:18.357Z,52.80
2024-01-04T08:37:46.832Z,52.80
2024-01-04T08:40:13.883Z,52.80
2024-01-04T08:42:40.550Z,52.80
2024-01-04T08:45:07.491Z,52.80
2024-01-04T08:47:34.264Z,52.80
2024-01-04T08:50:02.263Z,52.80
2024-01-04T08:52:29.388Z,52.80
2024-01-04T08:54:56.443Z,52.80
2024-01-04T08:57:23.196Z,52.70
2024-01-04T08:59:49.943Z,52.60
2024-01-04T09:02:16.639Z,52.60
2024-01-04T09:04:43.279Z,52.70
2024-01-04T09:07:09.943Z,52.50
2024-01-04T09:09:36.764Z,52.70
2024-01-04T09:12:03.495Z,52.70
2024-01-04T09:14:30.128Z,52.60
2024-01-04T09:16:56.753Z,52.60
2024-01-04T09:19:25.866Z,52.70
2024-01-04T09:21:53.940Z,52.70
2024-01-04T09:24:21.490Z,52.70
2024-01-04T09:26:48.522Z,52.70
2024-01-04T09:29:15.258Z,52.70
2024-01-04T09:31:41.966Z,52.80
2024-01-04T09:34:08.902Z,52.80
2024-01-04T09:36:35.634Z,52.80
2024-01-04T09:39:04.562Z,52.80
2024-01-04T09:41:31.895Z,53.00
2024-01-04T09:44:01.947Z,52.90
2024-01-04T09:46:33.061Z,52.90
2024-01-04T09:49:03.070Z,52.90
2024-01-04T09:51:30.691Z,52.90
2024-01-04T09:53:57.313Z,53.00
2024-01-04T09:56:24.029Z,52.80
2024-01-04T09:58:50.779Z,53.00
2024-01-04T10:01:24.001Z,52.50
2024-01-04T10:03:50.714Z,52.70
2024-01-04T10:06:20.295Z,53.00
2024-01-04T10:08:46.988Z,52.90
2024-01-04T10:11:14.285Z,52.80
2024-01-04T10:13:41.720Z,52.90
2024-01-04T10:16:08.358Z,52.90
2024-01-04T10:18:35.736Z,52.80
2024-01-04T10:21:04.830Z,52.80
2024-01-04T10:23:32.054Z,52.70
2024-01-04T10:26:11.725Z,52.70
2024-01-04T10:28:40.989Z,52.70
2024-01-04T10:31:10.921Z,52.70
2024-01-04T10:33:40.899Z,52.70
2024-01-04T10:36:09.512Z,52.60
2024-01-04T10:38:37.494Z,52.60
2024-01-04T10:41:05.379Z,52.60
2024-01-04T10:43:32.746Z,52.50
2024-01-04T10:46:10.202Z,53.10
2024-01-04T10:48:37.341Z,52.50
2024-01-04T10:51:05.628Z,52.40
2024-01-04T10:53:34.978Z,52.40
2024-01-04T10:56:01.797Z,52.50
2024-01-04T10:58:30.500Z,53.00
2024-01-04T11:00:57.247Z,52.50
2024-01-04T11:03:24.016Z,52.40
2024-01-04T11:05:50.783Z,52.50
2024-01-04T11:08:17.503Z,52.50
2024-01-04T11:10:46.040Z,52.50
2024-01-04T11:13:12.813Z,52.50
2024-01-04T11:15:39.492Z,52.40
2024-01-04T11:18:15.212Z,52.50
2024-01-04T11:20:45.110Z,52.50
2024-01-04T11:23:17.790Z,52.50
2024-01-04T11:26:03.312Z,53.10
2024-01-04T11:28:37.847Z,52.50
2024-01-04T11:31:07.393Z,52.40
2024-01-04T11:33:38.700Z,52.40
2024-01-04T11:36:05.867Z,52.40
2024-01-04T11:38:34.859Z,52.40
2024-01-04T11:41:02.288Z,52.40
2024-01-04T11:43:38.649Z,52.40
2024-01-04T11:46:24.929Z,52.40
2024-01-04T11:49:05.397Z,52.40
2024-01-04T11:51:53.682Z,52.50
2024-01-04T11:54:22.243Z,52.40
2024-01-04T11:56:49.375Z,52.40
2024-01-04T11:59:18.821Z,52.50
2024-01-04T12:01:46.031Z,52.50
2024-01-04T12:04:13.878Z,52.40
2024-01-04T12:06:41.350Z,53.00
2024-01-04T12:09:08.784Z,52.40
2024-01-04T12:11:39.025Z,52.40
2024-01-04T12:14:06.607Z,52.60
2024-01-04T12:16:33.322Z,52.60
2024-01-04T12:19:02.316Z,52.50
2024-01-04T12:21:29.203Z,52.50
2024-01-04T12:23:56.074Z,52.50
2024-01-04T12:26:27.520Z,52.50
2024-01-04T12:28:54.575Z,52.50
2024-01-04T12:31:26.014Z,52.50
2024-01-04T12:33:56.472Z,52.50
2024-01-04T12:36:23.769Z,52.40
2024-01-04T12:38:51.759Z,52.50
2024-01-04T12:41:25.213Z,52.40
2024-01-04T12:43:53.262Z,52.40
2024-01-04T12:46:20.246Z,52.40
2024-01-04T12:48:48.163Z,52.40
2024-01-04T12:51:18.952Z,52.40
2024-01-04T12:53:48.860Z,52.40
2024-01-04T12:56:16.458Z,52.40
2024-01-04T12:58:43.465Z,52.40
2024-01-04T13:01:10.389Z,52.40
2024-01-04T13:03:37.463Z,52.40
2024-01-04T13:06:04.474Z,52.50
2024-01-04T13:08:31.295Z,52.40
2024-01-04T13:10:57.929Z,52.50
2024-01-04T13:13:31.242Z,52.40
2024-01-04T13:15:59.804Z,52.40
2024-01-04T13:18:26.608Z,52.40
2024-01-04T13:20:53.559Z,52.40
2024-01-04T13:23:20.228Z,52.40
2024-01-04T13:25:46.861Z,52.40
2024-01-04T13:28:13.472Z,52.50
2024-01-04T13:30:40.186Z,52.50
2024-01-04T13:33:07.191Z,52.50
2024-01-04T13:35:33.922Z,52.50
2024-01-04T13:38:00.546Z,52.40
2024-01-04T13:40:27.156Z,52.40
2024-01-04T13:42:53.764Z,52.40
2024-01-04T13:45:20.468Z,52.40
2024-01-04T13:47:48.343Z,52.40
2024-01-04T13:50:16.010Z,52.40
2024-01-04T13:52:42.938Z,52.30
2024-01-04T13:55:09.757Z,52.30
2024-01-04T13:57:36.420Z,52.30
2024-01-04T14:00:04.461Z,52.20
2024-01-04T14:02:31.559Z,52.10
2024-01-04T14:04:58.224Z,52.00
2024-01-04T14:07:24.883Z,51.80
2024-01-04T14:09:51.515Z,51.80
2024-01-04T14:12:18.520Z,51.50
2024-01-04T14:14:45.253Z,51.40
2024-01-04T14:17:12.631Z,51.20
2024-01-04T14:19:39.370Z,50.60
2024-01-04T14:22:06.133Z,50.80
2024-01-04T14:24:33.670Z,50.70
2024-01-04T14:27:00.501Z,50.80
2024-01-04T14:29:27.263Z,51.10
2024-01-04T14:31:53.893Z,51.20
2024-01-04T14:34:20.646Z,51.90
2024-01-04T14:36:47.352Z,51.50
2024-01-04T14:39:22.423Z,51.50
2024-01-04T14:41:49.651Z,51.70
2024-01-04T14:44:16.284Z,51.50
2024-01-04T14:46:42.938Z,51.60
2024-01-04T14:49:10.224Z,51.70
2024-01-04T14:51:37.062Z,51.70
2024-01-04T14:54:04.162Z,51.60
2024-01-04T14:56:35.838Z,51.70
2024-01-04T14:59:02.438Z,51.60
2024-01-04T15:01:29.393Z,51.60
2024-01-04T15:03:56.966Z,51.60
2024-01-04T15:06:23.781Z,51.40
2024-01-04T15:08:51.671Z,51.70
2024-01-04T15:11:18.495Z,51.80
2024-01-04T15:13:45.281Z,51.80
2024-01-04T15:16:11.906Z,51.80
2024-01-04T15:18:38.757Z,51.80
2024-01-04T15:21:05.618Z,50.80
2024-01-04T15:23:33.527Z,50.50
2024-01-04T15:26:01.733Z,51.50
2024-01-04T15:28:28.410Z,51.90
2024-01-04T15:30:55.134Z,52.00
2024-01-04T15:33:23.289Z,52.00
2024-01-04T15:35:51.436Z,52.00
2024-01-04T15:38:18.804Z,52.00
2024-01-04T15:40:45.517Z,52.00
2024-01-04T15:43:12.705Z,52.00
2024-01-04T15:45:39.581Z,51.80
2024-01-04T15:48:06.383Z,51.70
2024-01-04T15:50:33.226Z,52.00
2024-01-04T15:53:00.346Z,52.00
2024-01-04T15:55:27.048Z,52.00
2024-01-04T15:57:53.753Z,52.00
2024-01-04T16:00:23.649Z,51.90
2024-01-04T16:02:50.777Z,52.00
2024-01-04T16:05:18.984Z,52.00
2024-01-04T16:07:45.805Z,52.00
2024-01-04T16:10:12.558Z,52.00
2024-01-04T16:12:39.227Z,52.00
2024-01-04T16:15:06.197Z,52.10
2024-01-04T16:17:33.680Z,51.60
2024-01-04T16:20:00.539Z,51.90
2024-01-04T16:22:27.379Z,52.00
2024-01-04T16:24:53.989Z,52.10
2024-01-04T16:27:20.655Z,52.10
2024-01-04T16:29:48.432Z,51.90
2024-01-04T16:32:15.106Z,52.00
2024-01-04T16:34:41.994Z,52.00
2024-01-04T16:37:08.641Z,52.00
2024-01-04T16:39:35.389Z,52.00
2024-01-04T16:42:02.545Z,51.70
2024-01-04T16:44:29.328Z,52.00
2024-01-04T16:46:56.517Z,52.00
2024-01-04T16:49:23.294Z,52.00
2024-01-04T16:51:50.126Z,52.00
2024-01-04T16:54:16.969Z,52.00
2024-01-04T16:56:43.695Z,52.00
2024-01-04T16:59:10.425Z,52.00
2024-01-04T17:01:37.408Z,52.00
2024-01-04T17:04:04.415Z,52.00
2024-01-04T17:06:31.178Z,52.60
2024-01-04T17:08:57.940Z,51.90
2024-01-04T17:11:24.632Z,52.00
2024-01-04T17:13:51.262Z,51.90
2024-01-04T17:16:22.867Z,52.00
2024-01-04T17:18:50.327Z,51.90
2024-01-04T17:21:17.311Z,51.80
2024-01-04T17:23:44.722Z,51.70
2024-01-04T17:26:11.896Z,51.70
2024-01-04T17:28:42.716Z,51.90
2024-01-04T17:31:09.572Z,51.70
2024-01-04T17:33:36.481Z,51.70
2024-01-04T17:36:16.620Z,51.60
2024-01-04T17:38:49.914Z,51.60
2024-01-04T17:41:16.781Z,51.60
2024-01-04T17:43:43.571Z,51.70
2024-01-04T17:46:10.197Z,51.60
2024-01-04T17:48:36.937Z,51.70
2024-01-04T17:51:05.179Z,51.70
2024-01-04T17:53:32.014Z,51.70
2024-01-04T17:55:59.216Z,51.70
2024-01-04T17:58:25.951Z,51.70
2024-01-04T18:00:53.666Z,51.70
2024-01-04T18:03:20.737Z,52.40
2024-01-04T18:05:47.726Z,52.30
2024-01-04T18:08:15.324Z,51.80
2024-01-04T18:10:41.974Z,51.80
2024-01-04T18:13:08.658Z,51.70
2024-01-04T18:15:35.492Z,51.70
2024-01-04T18:18:02.450Z,51.70
2024-01-04T18:20:29.244Z,51.70
2024-01-04T18:22:56.114Z,51.70
2024-01-04T18:25:22.765Z,51.60
2024-01-04T18:27:49.444Z,51.60
2024-01-04T18:30:16.279Z,51.60
2024-01-04T18:32:43.022Z,51.60
2024-01-04T18:35:09.790Z,51.60
2024-01-04T18:37:36.684Z,51.60
2024-01-04T18:40:03.537Z,51.60
2024-01-04T18:42:30.460Z,51.50
2024-01-04T18:44:57.463Z,51.50
2024-01-04T18:47:24.270Z,51.60
2024-01-04T18:49:51.180Z,51.60
2024-01-04T18:52:18.006Z,51.60
2024-01-04T18:54:44.605Z,51.50
2024-01-04T18:57:11.399Z,51.60
2024-01-04T18:59:38.072Z,51.60
2024-01-04T19:02:05.384Z,51.60
2024-01-04T19:04:32.362Z,51.60
2024-01-04T19:06:59.128Z,51.50
2024-01-04T19:09:27.525Z,51.50
2024-01-04T19:11:54.452Z,51.50
2024-01-04T19:14:21.241Z,51.50
2024-01-04T19:16:48.814Z,51.50
2024-01-04T19:19:15.889Z,51.50
2024-01-04T19:21:42.885Z,51.50
2024-01-04T19:24:09.836Z,52.20
2024-01-04T19:26:36.580Z,51.60
2024-01-04T19:29:03.187Z,51.60
2024-01-04T19:31:29.908Z,51.60
2024-01-04T19:33:56.931Z,51.60
2024-01-04T19:36:23.873Z,51.60
2024-01-04T19:38:50.589Z,51.60
2024-01-04T19:41:17.631Z,51.60
2024-01-04T19:43:44.236Z,51.60
2024-01-04T19:46:11.661Z,51.70
2024-01-04T19:48:38.960Z,51.50
2024-01-04T19:51:06.037Z,52.20
2024-01-04T19:53:32.831Z,51.60
2024-01-04T19:56:01.645Z,51.50
2024-01-04T19:58:30.574Z,51.50
2024-01-04T20:00:57.306Z,51.40
2024-01-04T20:03:24.186Z,51.40
2024-01-04T20:05:50.929Z,51.40
2024-01-04T20:08:17.617Z,51.40
2024-01-04T20:10:44.224Z,51.50
2024-01-04T20:13:10.831Z,51.40
2024-01-04T20:15:37.506Z,51.50
2024-01-04T20:18:04.594Z,51.50
2024-01-04T20:20:31.359Z,51.60
2024-01-04T20:22:58.023Z,51.50
2024-01-04T20:25:24.712Z,51.50
2024-01-04T20:27:52.121Z,51.50
2024-01-04T20:30:18.966Z,51.20
2024-01-04T20:32:45.744Z,51.60
2024-01-04T20:35:12.526Z,51.70
2024-01-04T20:37:39.195Z,51.70
2024-01-04T20:40:06.450Z,51.60
2024-01-04T20:42:35.284Z,51.70
2024-01-04T20:45:01.984Z,51.70
2024-01-04T20:47:28.688Z,51.60
2024-01-04T20:49:55.369Z,51.60
2024-01-04T20:52:22.058Z,51.50
2024-01-04T20:54:48.716Z,51.60
2024-01-04T20:57:15.413Z,52.20
2024-01-04T20:59:42.515Z,51.50
2024-01-04T21:02:09.178Z,51.40
2024-01-04T21:04:36.053Z,51.50
2024-01-04T21:07:02.801Z,51.40
2024-01-04T21:09:29.517Z,51.50
2024-01-04T21:11:56.297Z,51.50
2024-01-04T21:14:23.050Z,51.50
2024-01-04T21:16:50.147Z,51.50
2024-01-04T21:19:17.737Z,51.50
2024-01-04T21:21:44.543Z,51.50
2024-01-04T21:24:11.887Z,51.60
2024-01-04T21:26:38.688Z,51.70
2024-01-04T21:29:05.355Z,51.60
2024-01-04T21:31:32.024Z,51.50
2024-01-04T21:33:58.789Z,51.50
2024-01-04T21:36:28.256Z,51.50
2024-01-04T21:38:55.661Z,51.40
2024-01-04T21:41:22.532Z,51.40
2024-01-04T21:43:49.319Z,51.40
2024-01-04T21:46:19.457Z,51.50
2024-01-04T21:48:46.445Z,51.30
2024-01-04T21:51:19.454Z,51.30
2024-01-04T21:53:49.189Z,51.30
2024-01-04T21:56:28.761Z,51.30
2024-01-04T21:58:55.969Z,51.20
2024-01-04T22:01:25.970Z,51.20
2024-01-04T22:03:52.951Z,51.90
2024-01-04T22:06:19.865Z,51.20
2024-01-04T22:08:46.967Z,51.20
2024-01-04T22:11:13.641Z,51.30
2024-01-04T22:13:40.272Z,51.20
2024-01-04T22:16:06.959Z,51.20
2024-01-04T22:18:34.561Z,51.10
2024-01-04T22:21:01.362Z,51.10
2024-01-04T22:23:27.993Z,51.10
2024-01-04T22:25:54.694Z,51.10
2024-01-04T22:28:21.342Z,51.10
2024-01-04T22:30:48.034Z,51.10
2024-01-04T22:33:14.977Z,51.10
2024-01-04T22:35:41.701Z,51.80
2024-01-04T22:38:08.353Z,51.20
2024-01-04T22:40:35.046Z,51.10
2024-01-04T22:43:01.681Z,51.10
2024-01-04T22:45:29.539Z,51.10
2024-01-04T22:47:56.423Z,51.10
2024-01-04T22:50:23.090Z,51.80
2024-01-04T22:52:49.759Z,51.20
2024-01-04T22:55:16.385Z,51.20
2024-01-04T22:57:43.313Z,51.20
2024-01-04T23:00:13.821Z,51.20
2024-01-04T23:02:40.965Z,51.20
2024-01-04T23:05:08.074Z,51.80
2024-01-04T23:07:34.804Z,51.20
2024-01-04T23:10:01.495Z,51.30
2024-01-04T23:12:28.217Z,51.30
2024-01-04T23:14:54.981Z,51.30
2024-01-04T23:17:21.678Z,51.30
2024-01-04T23:19:48.946Z,51.30
2024-01-04T23:22:16.013Z,51.30
2024-01-04T23:24:42.722Z,51.20
2024-01-04T23:27:09.736Z,51.20
2024-01-04T23:29:36.809Z,51.10
2024-01-04T23:32:03.499Z,51.10
2024-01-04T23:34:30.202Z,51.80
2024-01-04T23:36:56.868Z,51.10
2024-01-04T23:39:23.528Z,51.10
2024-01-04T23:41:50.238Z,51.10
2024-01-04T23:44:17.083Z,51.00
2024-01-04T23:46:44.290Z,51.20
2024-01-04T23:49:11.370Z,51.70
2024-01-04T23:51:39.093Z,51.20
2024-01-04T23:54:06.559Z,51.10
2024-01-04T23:56:33.359Z,51.10
2024-01-04T23:59:00.731Z,51.10
